Date,TemperatureHighF,TemperatureAvgF,TemperatureLowF,DewpointHighF,DewpointAvgF,DewpointLowF,HumidityHigh,HumidityAvg,HumidityLow,PressureMaxIn,PressureMinIn,WindSpeedMaxMPH,WindSpeedAvgMPH,GustSpeedMaxMPH,PrecipitationSumIn
2013-1-1,105,84,69,72,64,57,75,55,22,29.88,29.72,20,5,20,0.00
2013-1-2,87,76,69,66,63,59,85,66,47,30.06,29.73,20,10,20,0.00
2013-1-3,86,74,68,64,60,56,73,61,46,30.07,29.98,16,7,16,0.00
2013-1-4,96,78,61,68,62,55,86,60,39,30.02,29.90,18,5,18,0.00
2013-1-5,102,81,62,70,63,56,83,58,26,30.03,29.91,16,4,16,0.00
2013-1-6,96,80,65,70,64,59,85,62,40,30.18,30.01,20,6,20,0.00
2013-1-7,94,79,71,71,66,62,79,64,44,30.18,29.93,17,5,17,0.00
2013-1-8,109,90,68,63,58,48,78,41,18,29.92,29.40,24,9,24,0.00
2013-1-9,90,79,71,63,57,49,62,49,25,29.73,29.31,24,11,24,0.00
2013-1-10,81,74,70,63,60,57,72,61,53,29.85,29.71,20,7,20,0.00
2013-1-11,103,84,65,73,66,58,83,59,35,29.85,29.65,19,4,19,0.00
2013-1-12,116,88,74,71,65,57,73,51,16,29.90,29.65,34,8,35,0.00
2013-1-13,90,77,68,72,66,62,86,70,53,29.89,29.67,20,7,20,0.24
2013-1-14,80,70,65,64,59,54,87,69,43,30.12,29.82,23,11,23,0.24
2013-1-15,86,73,62,65,60,56,81,64,46,30.12,29.96,18,5,18,0.06
2013-1-16,96,78,60,69,62,54,85,60,36,29.97,29.82,14,4,14,0.00
2013-1-17,98,84,72,74,69,64,84,64,43,29.90,29.68,16,6,16,0.00
2013-1-18,117,89,71,75,66,60,84,55,17,29.74,29.47,25,6,25,0.14
2013-1-19,86,75,68,67,63,58,80,65,50,29.99,29.74,25,10,25,0.08
2013-1-20,74,70,67,68,65,62,88,86,82,30.03,29.94,10,2,10,0.53
2013-1-21,89,76,68,71,67,65,89,76,51,29.99,29.87,15,3,15,0.53
2013-1-22,103,79,64,74,67,60,90,69,39,29.86,29.72,17,3,17,0.10
2013-1-23,80,73,70,68,66,64,87,78,65,30.02,29.84,22,10,22,0.10
2013-1-24,87,75,68,72,67,63,86,77,60,30.03,29.91,18,6,20,0.04
2013-1-25,96,80,68,75,69,64,90,71,47,29.94,29.77,18,5,18,0.04
2013-1-26,91,80,70,76,70,66,87,72,52,29.88,29.78,20,6,20,0.08
2013-1-27,76,73,71,71,68,67,90,86,79,29.81,29.74,13,3,13,1.41
2013-1-28,72,70,68,69,68,66,93,91,90,29.79,29.59,27,6,27,4.10
2013-1-29,87,75,69,74,68,63,94,81,60,29.82,29.50,24,5,24,4.51
2013-1-30,90,75,69,72,66,64,86,75,53,29.97,29.83,16,4,16,0.00
2013-1-31,98,81,71,75,70,66,85,70,45,29.96,29.69,57,4,57,0.00
2013-2-1,88,72,65,73,66,61,89,81,50,29.73,29.62,24,7,24,1.23
2013-2-2,70,63,60,62,58,53,89,82,65,29.92,29.66,29,11,29,0.34
2013-2-3,82,69,60,60,56,51,75,64,46,30.05,29.85,25,11,25,0.34
2013-2-4,88,72,62,65,61,57,85,68,43,30.22,30.03,21,7,21,0.00
2013-2-5,90,73,60,67,61,55,87,68,44,30.22,30.15,18,4,18,0.00
2013-2-6,90,75,62,66,61,57,87,64,38,30.17,30.03,18,4,18,0.00
2013-2-7,92,70,58,65,58,52,86,68,41,30.07,29.96,18,4,18,0.00
2013-2-8,100,78,59,70,62,53,86,61,35,30.06,29.96,15,4,15,0.00
2013-2-9,103,80,64,70,65,58,85,63,32,30.03,29.86,15,3,15,0.00
2013-2-10,102,79,70,76,68,65,86,71,42,30.11,29.88,26,7,26,0.30
2013-2-11,72,69,68,66,64,63,89,84,79,30.10,30.01,20,7,20,0.02
2013-2-12,75,71,68,67,64,61,92,81,68,30.17,30.02,16,5,16,1.15
2013-2-13,77,71,66,64,61,58,87,72,54,30.22,30.13,15,3,15,0.02
2013-2-14,79,71,62,65,60,56,81,69,53,30.18,30.08,16,4,16,0.02
2013-2-15,77,72,68,65,63,61,83,74,59,30.16,30.08,17,4,17,0.02
2013-2-16,79,72,65,65,62,59,84,71,57,30.16,30.08,16,4,16,0.20
2013-2-17,76,71,65,65,62,59,88,74,57,30.15,30.08,18,4,18,0.41
2013-2-18,78,71,64,67,63,59,85,75,58,30.11,29.99,17,4,17,0.10
2013-2-19,81,73,65,68,64,60,86,75,60,30.01,29.90,17,4,17,0.02
2013-2-20,80,74,68,69,66,63,88,76,62,30.04,29.92,18,5,18,0.06
2013-2-21,80,73,68,69,66,63,88,78,65,30.05,29.98,26,6,26,0.28
2013-2-22,76,71,67,67,64,61,88,80,70,30.03,29.96,26,9,26,0.55
2013-2-23,75,71,68,71,68,64,93,91,87,29.95,29.69,31,14,31,1.91
2013-2-24,87,77,70,75,71,67,93,81,61,29.95,29.77,17,6,17,1.91
2013-2-25,85,78,71,73,70,66,86,77,65,30.05,29.93,17,4,18,0.00
2013-2-26,81,77,72,70,68,64,82,74,65,30.06,29.96,20,6,20,0.00
2013-2-27,86,77,70,69,65,63,81,69,50,30.01,29.83,19,5,19,0.00
2013-2-28,87,75,66,69,66,62,87,73,53,29.86,29.71,22,6,22,0.81
2013-3-1,67,65,64,65,62,60,92,90,87,30.01,29.76,26,15,26,2.14
2013-3-2,66,64,62,64,61,59,92,90,87,30.12,30.00,26,12,26,1.03
2013-3-3,75,70,66,65,64,44,91,80,68,30.13,30.05,21,9,21,1.07
2013-3-4,76,71,66,63,62,60,85,74,63,30.16,30.08,20,7,20,0.04
2013-3-5,78,73,66,65,62,60,85,71,57,30.15,30.08,21,6,21,0.06
2013-3-6,79,74,70,65,64,62,81,70,55,30.13,30.03,18,4,18,0.02
2013-3-7,80,72,64,65,62,57,86,70,56,30.12,30.02,16,4,17,0.02
2013-3-8,78,71,63,65,62,57,85,72,58,30.17,30.09,15,4,15,0.00
2013-3-9,79,74,69,66,64,60,83,73,53,30.16,30.06,17,4,17,0.00
2013-3-10,79,72,65,64,62,59,84,72,59,30.11,30.02,15,3,15,0.02
2013-3-11,78,71,66,74,63,60,85,77,59,30.14,30.04,15,2,15,0.02
2013-3-12,78,71,65,65,62,59,86,73,59,30.13,30.01,15,3,15,0.02
2013-3-13,80,72,62,65,61,56,87,71,53,30.03,29.82,8,2,14,0.02
2013-3-14,80,72,64,67,62,58,84,74,55,29.94,29.78,9,2,15,0.02
2013-3-15,73,71,70,68,66,65,88,85,82,30.03,29.91,9,4,16,0.10
2013-3-16,84,74,66,69,66,62,89,78,58,30.00,29.74,9,1,14,0.10
2013-3-17,73,70,66,66,57,50,84,64,46,30.08,29.74,18,8,28,0.00
2013-3-18,72,66,59,58,55,52,84,70,54,30.19,30.05,13,4,18,0.08
2013-3-19,73,65,57,60,56,51,85,72,55,30.27,30.15,8,2,14,0.00
2013-3-20,75,67,58,62,58,53,86,74,60,30.26,30.14,12,2,18,0.00
2013-3-21,81,71,61,65,60,54,83,69,47,30.17,29.92,7,2,13,0.00
2013-3-22,87,78,70,67,64,62,76,64,49,29.97,29.89,15,5,21,0.00
2013-3-23,87,79,74,68,64,60,75,60,48,30.01,29.90,8,2,16,0.00
2013-3-24,88,78,69,70,66,56,86,69,36,30.00,29.83,8,2,13,0.02
2013-3-25,81,74,67,68,64,59,80,72,57,30.08,29.93,9,2,14,0.00
2013-3-26,83,76,71,70,68,66,86,76,60,30.10,29.98,7,1,12,0.00
2013-3-27,86,76,66,70,66,60,86,73,52,30.08,29.97,9,2,16,0.00
2013-3-28,88,77,68,70,65,62,84,68,46,30.03,29.87,8,2,20,0.08
2013-3-29,74,69,64,68,56,50,83,64,56,30.09,29.90,12,5,20,0.34
2013-3-30,73,66,57,60,56,51,81,70,59,30.07,29.86,7,1,13,0.00
2013-3-31,75,69,65,60,58,54,81,69,48,29.99,29.77,8,2,15,0.00
2013-4-1,74,68,63,62,60,57,84,76,60,30.05,29.96,9,2,15,0.02
2013-4-2,76,68,60,60,57,54,86,71,48,30.02,29.91,8,1,13,0.02
2013-4-3,66,64,63,62,60,58,90,86,77,30.22,30.00,13,2,20,1.99
2013-4-4,68,64,61,63,60,57,91,87,77,30.38,30.22,7,1,13,0.51
2013-4-5,72,66,62,62,58,56,89,77,59,30.40,30.33,8,2,15,0.53
2013-4-6,71,66,61,61,59,56,87,79,67,30.36,30.22,7,1,12,0.00
2013-4-7,70,64,57,62,57,52,89,79,66,30.24,30.14,6,1,13,0.00
2013-4-8,72,64,56,61,56,50,88,76,62,30.27,30.18,8,2,12,0.04
2013-4-9,70,63,58,63,59,53,89,84,74,30.29,30.20,16,1,23,1.22
2013-4-10,71,64,57,61,58,53,91,80,67,30.25,30.14,8,1,12,1.28
2013-4-11,74,65,55,60,56,50,89,75,55,30.23,30.13,7,1,11,0.00
2013-4-12,74,67,59,63,58,53,88,74,59,30.28,30.17,8,2,16,0.00
2013-4-13,75,66,57,63,58,51,88,75,63,30.17,29.98,8,2,15,0.00
2013-4-14,77,68,58,64,59,52,88,74,52,29.96,29.84,5,1,9,0.00
2013-4-15,80,69,59,64,59,54,86,71,54,29.84,29.72,8,1,13,0.00
2013-4-16,68,66,65,61,60,60,84,81,76,29.96,29.90,6,2,11,0.02
2013-4-17,72,65,59,61,58,54,87,78,66,29.99,29.91,10,2,14,0.02
2013-4-18,74,66,59,62,58,54,88,77,60,29.94,29.85,8,2,12,0.02
2013-4-19,67,62,60,56,49,42,83,63,48,29.94,29.85,16,5,22,0.00
2013-4-20,61,59,58,57,52,41,90,80,51,29.97,29.81,10,4,18,2.20
2013-4-21,65,59,53,55,52,48,85,77,65,29.98,29.87,8,2,15,0.02
2013-4-22,72,63,57,56,54,52,88,74,51,29.86,29.73,6,1,12,0.02
2013-4-23,72,62,51,55,50,45,81,68,48,29.99,29.83,8,1,12,0.02
2013-4-24,70,60,52,54,50,46,84,69,45,30.08,29.97,5,1,13,0.00
2013-4-25,69,60,52,53,50,46,84,70,48,30.17,30.06,6,1,10,0.00
2013-4-26,72,62,53,55,49,44,78,64,47,30.21,30.09,6,1,12,0.00
2013-4-27,73,62,52,58,52,46,83,70,49,30.17,30.04,5,1,10,0.00
2013-4-28,77,67,59,55,51,46,82,58,38,30.10,30.01,6,2,12,0.02
2013-4-29,76,66,56,67,54,46,85,65,43,30.21,30.07,7,1,12,0.00
2013-4-30,73,68,65,65,63,61,89,83,75,30.26,30.16,9,2,15,0.00
2013-5-1,79,69,63,62,60,57,89,74,48,30.14,29.91,13,2,18,0.00
2013-5-2,67,63,60,60,51,48,77,65,54,30.32,30.05,15,7,23,0.00
2013-5-3,68,60,52,54,50,45,83,71,55,30.31,30.11,7,1,11,0.02
2013-5-4,72,64,58,57,49,46,73,60,46,30.21,29.98,16,4,22,0.00
2013-5-5,65,61,57,50,48,46,69,62,56,30.24,30.15,12,4,18,0.00
2013-5-6,65,59,52,55,50,46,81,74,64,30.30,30.20,10,3,17,0.02
2013-5-7,67,61,56,58,54,50,88,80,68,30.38,30.26,6,1,14,0.00
2013-5-8,67,61,54,59,54,48,89,80,66,30.42,30.33,6,1,13,0.02
2013-5-9,69,60,52,57,52,46,88,75,58,30.41,30.33,3,0,7,0.00
2013-5-10,69,59,49,56,51,42,87,75,58,30.42,30.33,6,1,9,0.00
2013-5-11,68,62,57,62,57,52,89,82,74,30.40,30.31,7,1,15,0.00
2013-5-12,69,61,52,59,54,47,89,79,69,30.33,30.17,7,1,14,0.00
2013-5-13,67,61,55,58,55,50,88,80,65,30.15,29.92,8,2,29,0.00
2013-5-14,64,61,56,58,56,51,88,84,79,29.92,29.83,7,1,29,0.08
2013-5-15,65,57,48,48,45,42,82,66,51,29.95,29.82,8,2,16,0.08
2013-5-16,68,62,57,50,46,44,64,57,46,29.87,29.75,9,2,18,0.00
2013-5-17,65,58,53,47,43,39,74,59,40,29.93,29.82,10,3,20,0.00
2013-5-18,64,57,51,45,41,39,67,57,44,29.97,29.86,7,2,12,0.02
2013-5-19,62,56,49,41,40,38,70,56,44,30.02,29.95,7,2,17,0.00
2013-5-20,64,55,49,47,42,37,72,61,48,30.07,29.96,10,2,15,0.00
2013-5-21,68,59,53,48,44,42,71,59,45,30.01,29.88,8,2,17,0.00
2013-5-22,61,56,50,54,48,43,85,77,70,29.96,29.77,5,0,29,0.16
2013-5-23,62,56,53,55,52,50,91,88,77,29.95,29.76,12,3,20,1.01
2013-5-24,65,60,56,55,52,49,89,76,60,30.09,29.94,14,7,29,0.10
2013-5-25,64,58,54,55,52,48,87,79,68,30.23,30.09,10,2,17,0.20
2013-5-26,63,54,45,50,46,40,85,74,59,30.27,30.18,5,0,9,0.00
2013-5-27,59,52,44,56,48,39,92,87,79,30.41,30.23,3,0,29,0.22
2013-5-28,64,58,53,59,54,50,93,88,79,30.49,30.39,3,0,14,0.06
2013-5-29,66,59,54,57,54,50,91,83,71,30.44,30.34,5,1,9,0.06
2013-5-30,66,57,48,55,50,44,90,79,63,30.39,30.28,7,1,11,0.02
2013-5-31,68,59,50,57,52,45,88,79,65,30.34,30.22,6,1,11,0.02
2013-6-1,67,60,55,58,54,50,88,81,68,30.20,29.93,5,1,29,0.12
2013-6-2,61,57,53,57,53,47,90,86,75,29.97,29.65,15,4,25,0.71
2013-6-3,61,56,50,48,45,42,82,69,59,30.15,29.97,14,4,40,0.77
2013-6-4,62,54,45,53,47,39,87,78,68,30.28,30.18,6,1,29,0.00
2013-6-5,63,54,47,54,49,43,89,82,73,30.28,30.17,6,1,14,0.00
2013-6-6,62,58,55,54,52,48,86,78,70,30.22,30.11,5,1,8,0.00
2013-6-7,69,63,58,60,56,51,86,79,69,30.22,30.05,6,1,12,0.00
2013-6-8,63,60,56,55,52,48,87,77,66,30.42,30.26,7,1,11,0.00
2013-6-9,65,57,49,56,50,42,85,79,71,30.36,30.20,5,0,10,0.00
2013-6-10,65,57,49,57,52,45,88,82,71,30.18,30.05,7,1,12,0.00
2013-6-11,65,58,52,55,51,47,86,78,65,30.13,30.02,5,1,11,0.02
2013-6-12,62,55,50,57,51,44,91,87,80,30.01,29.77,5,0,13,0.39
2013-6-13,64,58,51,55,51,47,91,80,65,29.77,29.66,12,2,17,0.41
2013-6-14,62,58,54,50,49,46,82,73,63,29.72,29.62,12,4,18,0.02
2013-6-15,63,58,54,48,46,43,77,65,54,29.89,29.70,10,4,18,0.00
2013-6-16,60,56,50,47,44,42,76,65,56,29.95,29.85,8,1,12,0.00
2013-6-17,59,52,47,48,44,40,78,72,67,29.83,29.75,5,1,29,0.00
2013-6-18,60,53,46,48,44,39,78,70,56,29.97,29.82,8,2,16,0.00
2013-6-19,59,53,50,49,47,45,87,78,67,30.20,29.99,15,6,29,0.02
2013-6-20,58,54,51,49,46,43,81,76,69,30.21,30.10,8,2,14,0.02
2013-6-21,59,53,48,52,47,43,85,81,72,30.14,30.05,7,1,13,0.00
2013-6-22,58,51,43,49,45,38,87,80,71,30.28,30.14,8,2,29,0.02
2013-6-23,58,54,51,53,50,46,90,87,81,30.34,30.24,12,2,43,0.43
2013-6-24,60,55,52,51,49,46,89,81,66,30.21,29.97,17,1,29,0.43
2013-6-25,57,52,47,49,46,42,83,79,72,29.99,29.92,6,1,7,0.00
2013-6-26,63,57,46,57,52,41,93,84,76,30.11,29.96,15,5,29,0.16
2013-6-27,59,58,56,57,55,53,92,91,87,30.16,30.09,8,1,14,0.81
2013-6-28,61,56,54,57,54,51,93,90,83,30.21,30.13,7,0,14,0.37
2013-6-29,61,58,56,56,54,53,92,89,83,30.23,30.14,5,1,14,0.57
2013-6-30,57,56,54,55,53,51,92,91,90,30.24,30.17,7,2,12,0.42
2013-7-1,61,56,52,56,53,49,92,89,83,30.21,30.14,9,2,21,0.04
2013-7-2,61,54,49,54,49,46,89,83,75,30.22,30.12,6,1,14,0.04
2013-7-3,60,52,44,52,46,40,89,82,69,30.23,30.12,6,1,22,0.00
2013-7-4,68,57,48,53,49,43,88,74,58,30.10,29.88,12,3,20,0.02
2013-7-5,67,61,54,50,46,35,80,61,42,30.02,29.80,10,2,17,0.00
2013-7-6,59,53,46,40,36,33,63,53,46,30.19,30.04,9,2,16,0.00
2013-7-7,59,51,44,44,38,34,73,63,47,30.36,30.22,5,1,8,0.00
2013-7-8,60,48,38,46,39,32,82,70,50,30.46,30.36,7,1,12,0.00
2013-7-9,55,51,44,51,46,35,90,85,47,30.55,30.43,8,1,14,0.20
2013-7-10,57,52,49,52,48,45,90,86,82,30.51,30.42,5,0,7,0.20
2013-7-11,60,52,46,53,47,41,90,84,76,30.54,30.45,7,1,14,0.00
2013-7-12,60,52,44,53,47,39,90,84,78,30.46,30.31,5,1,8,0.00
2013-7-13,60,53,44,54,48,39,90,83,76,30.36,30.29,5,0,14,0.00
2013-7-14,62,52,45,53,47,41,90,83,67,30.34,30.25,5,0,14,0.00
2013-7-15,62,56,52,56,52,48,91,86,80,30.25,30.17,5,1,9,0.00
2013-7-16,67,60,55,57,54,51,89,80,67,30.26,30.18,7,1,12,0.00
2013-7-17,69,61,54,57,54,49,87,77,63,30.23,30.14,7,1,10,0.00
2013-7-18,68,60,52,58,54,47,88,80,68,30.20,30.07,7,1,12,0.00
2013-7-19,67,60,55,57,55,51,87,82,68,30.04,29.88,8,1,21,0.04
2013-7-20,66,60,57,56,50,39,86,71,44,29.87,29.69,10,3,21,0.04
2013-7-21,59,54,46,40,38,35,72,55,41,30.06,29.89,9,2,16,0.00
2013-7-22,60,52,42,40,36,33,74,57,41,30.12,30.02,10,2,20,0.00
2013-7-23,61,53,46,43,38,34,65,58,48,30.16,30.04,7,2,15,0.00
2013-7-24,61,56,53,47,43,39,67,61,58,30.34,30.17,18,6,23,0.00
2013-7-25,61,54,48,48,44,40,78,70,58,30.39,30.30,5,1,8,0.00
2013-7-26,62,52,44,46,42,38,83,68,50,30.31,30.20,7,2,15,0.00
2013-7-27,61,52,42,51,44,33,84,75,65,30.42,30.30,5,1,8,0.00
2013-7-28,62,53,44,53,47,39,89,80,67,30.40,30.28,6,1,10,0.00
2013-7-29,67,56,46,53,48,41,88,74,55,30.29,30.14,5,1,9,0.00
2013-7-30,66,58,50,53,48,44,82,71,56,30.13,30.02,9,2,12,0.00
2013-7-31,63,58,55,55,52,49,88,79,65,30.21,30.09,15,6,22,0.02
2013-8-1,62,55,49,52,48,44,85,77,63,30.18,30.09,8,2,13,0.02
2013-8-2,66,55,45,52,45,40,89,70,47,30.09,29.89,8,1,14,0.00
2013-8-3,64,57,50,45,42,39,67,57,46,30.01,29.88,8,3,17,0.00
2013-8-4,64,57,51,46,42,38,65,57,48,30.01,29.87,10,3,18,0.00
2013-8-5,64,56,49,44,40,37,68,57,45,30.07,29.94,9,3,17,0.00
2013-8-6,70,60,51,45,42,39,64,52,39,30.00,29.79,17,4,22,0.00
2013-8-7,63,58,54,50,48,43,82,68,57,29.90,29.77,8,2,14,0.12
2013-8-8,56,53,51,50,45,40,87,76,57,29.95,29.67,15,4,21,0.12
2013-8-9,62,56,48,46,43,40,73,62,50,30.06,29.91,7,2,13,0.12
2013-8-10,70,61,56,48,43,39,66,52,41,30.00,29.92,8,2,17,0.00
2013-8-11,69,56,45,50,44,38,79,65,48,30.04,29.90,8,1,14,0.00
2013-8-12,76,64,55,51,46,42,70,53,32,29.87,29.59,13,4,23,0.00
2013-8-13,68,59,51,40,37,31,64,46,32,29.99,29.85,9,3,15,0.02
2013-8-14,70,60,51,42,38,35,59,45,29,29.97,29.77,9,2,17,0.00
2013-8-15,62,57,51,40,36,31,63,45,33,30.17,29.79,16,5,21,0.00
2013-8-16,66,54,41,50,41,34,77,63,43,30.20,29.98,9,2,14,0.00
2013-8-17,70,61,51,54,49,40,80,67,42,29.92,29.73,14,4,22,0.02
2013-8-18,69,60,52,43,40,36,58,48,33,30.05,29.90,7,2,17,0.00
2013-8-19,70,59,50,42,38,35,60,46,34,29.92,29.70,13,3,22,0.02
2013-8-20,61,54,48,35,32,28,57,43,29,30.00,29.84,13,3,15,0.02
2013-8-21,62,52,45,41,35,30,65,53,39,30.01,29.90,6,2,14,0.00
2013-8-22,63,54,45,40,37,34,67,53,40,29.98,29.83,8,3,16,0.00
2013-8-23,67,59,53,44,41,38,60,51,41,29.92,29.79,12,4,21,0.00
2013-8-24,67,60,55,50,47,43,71,61,48,30.20,29.95,8,2,16,0.00
2013-8-25,72,60,48,51,46,41,83,62,36,30.25,30.11,9,2,15,0.00
2013-8-26,68,57,47,51,45,39,78,65,42,30.24,30.10,6,1,14,0.00
2013-8-27,68,58,49,51,47,43,82,68,51,30.17,30.04,8,1,13,0.00
2013-8-28,69,59,48,53,47,41,84,67,47,30.20,30.06,12,2,17,0.00
2013-8-29,69,60,50,56,51,44,89,73,56,30.23,30.06,9,2,14,0.00
2013-8-30,80,69,60,57,53,49,80,61,38,30.04,29.86,12,3,20,0.00
2013-8-31,73,63,53,53,47,43,74,59,35,30.24,30.01,10,2,20,0.00
2013-9-1,69,60,50,57,50,43,84,70,48,30.38,30.25,9,2,14,0.00
2013-9-2,69,60,50,56,50,44,88,71,57,30.45,30.34,7,1,12,0.00
2013-9-3,68,60,50,57,52,44,88,75,66,30.51,30.42,8,1,13,0.02
2013-9-4,70,60,49,56,50,43,87,71,52,30.50,30.34,10,2,14,0.00
2013-9-5,77,64,51,53,50,44,84,62,38,30.37,30.21,7,1,14,0.02
2013-9-6,76,69,64,62,54,47,80,60,51,30.31,30.19,7,2,12,0.00
2013-9-7,82,71,61,61,52,45,80,53,28,30.20,30.06,10,2,17,0.02
2013-9-8,69,67,65,61,60,58,85,78,70,30.26,30.17,12,3,21,0.02
2013-9-9,76,69,64,63,60,59,85,75,57,30.22,29.88,6,1,13,0.00
2013-9-10,84,74,66,60,50,46,79,46,27,29.83,29.57,15,4,22,0.00
2013-9-11,76,67,57,45,41,34,57,40,24,29.92,29.74,7,2,13,0.00
2013-9-12,72,63,52,51,44,40,69,51,33,30.00,29.83,9,1,16,0.00
2013-9-13,64,59,54,50,47,44,69,65,57,30.16,30.03,9,1,13,0.00
2013-9-14,75,64,58,58,55,50,86,73,49,29.95,29.74,17,4,21,0.24
2013-9-15,66,62,56,56,53,50,81,73,64,30.08,29.95,10,3,15,0.02
2013-9-16,64,59,54,59,54,48,91,83,74,30.03,29.67,7,2,14,0.44
2013-9-17,70,64,58,59,55,51,90,75,56,29.60,29.49,9,3,17,0.04
2013-9-18,75,66,59,55,51,44,78,60,35,29.63,29.54,12,4,22,0.04
2013-9-19,74,66,59,47,43,39,61,44,30,29.76,29.58,12,3,20,0.02
2013-9-20,72,63,54,44,40,32,59,44,24,29.88,29.67,17,4,32,0.00
2013-9-21,68,61,54,48,44,40,66,54,45,29.95,29.87,8,2,14,0.00
2013-9-22,72,61,49,54,48,42,80,64,40,29.98,29.85,10,2,16,0.00
2013-9-23,85,68,54,59,50,38,83,57,20,29.92,29.69,12,2,20,0.02
2013-9-24,85,72,63,54,46,39,62,42,23,29.75,29.51,7,2,15,0.00
2013-9-25,86,74,60,56,49,44,61,43,26,29.83,29.70,7,2,14,0.00
2013-9-26,90,74,60,53,44,27,68,40,15,29.96,29.59,15,3,30,0.00
2013-9-27,71,64,55,49,39,34,58,40,29,30.13,30.00,9,2,17,0.00
2013-9-28,85,69,53,48,39,27,77,41,14,29.94,29.70,13,3,22,0.08
2013-9-29,72,66,57,53,44,36,67,47,32,30.04,29.90,8,2,36,0.08
2013-9-30,84,68,52,51,46,37,80,50,19,30.03,29.84,8,2,15,0.00
2013-10-1,87,67,59,62,50,45,64,54,34,29.86,29.59,15,2,23,0.06
2013-10-4,78,64,58,58,52,50,73,65,52,30.12,30.07,7,1,10,0.06
2013-10-5,82,65,49,55,46,39,84,54,26,30.10,29.82,7,2,15,0.06
2013-10-6,89,74,59,51,42,34,68,36,15,29.87,29.61,8,2,16,0.00
2013-10-7,72,67,64,56,51,44,71,56,40,29.93,29.65,16,6,23,0.00
2013-10-8,69,63,56,54,52,49,77,66,53,30.10,29.88,14,3,18,0.02
2013-10-9,83,67,51,53,46,40,81,53,22,30.12,29.89,7,2,18,0.02
2013-10-10,93,79,67,45,42,39,41,28,16,29.93,29.61,13,4,21,0.00
2013-10-11,81,70,66,60,56,42,77,62,26,29.99,29.60,17,5,34,0.00
2013-10-12,85,69,55,64,56,48,82,64,31,30.00,29.73,8,2,19,0.00
2013-10-13,95,80,66,60,51,34,77,44,12,29.73,29.41,16,5,35,0.02
2013-10-14,68,64,60,60,47,43,78,56,45,30.11,29.67,14,4,23,0.69
2013-10-15,75,62,49,47,40,36,71,49,25,30.21,30.05,8,2,17,0.00
2013-10-16,84,67,50,50,42,32,71,44,16,30.11,29.88,10,3,18,0.00
2013-10-17,92,77,62,54,42,24,49,32,10,29.97,29.62,16,5,25,0.00
2013-10-18,72,65,60,48,40,28,62,42,24,30.34,30.03,17,5,22,0.00
2013-10-19,72,62,50,57,48,42,76,62,44,30.34,30.21,13,2,18,0.00
2013-10-20,83,70,57,62,56,50,84,64,36,30.22,29.96,12,2,18,0.00
2013-10-21,95,78,62,60,56,46,81,52,21,30.01,29.85,8,2,16,0.02
2013-10-22,84,76,69,66,62,55,77,64,51,29.98,29.82,12,4,18,0.00
2013-10-23,95,81,69,64,56,38,80,49,16,29.81,29.57,14,4,24,0.00
2013-10-24,81,72,63,56,44,29,65,40,16,30.12,29.82,15,4,23,0.00
2013-10-25,72,63,53,52,41,33,63,45,27,30.21,30.06,12,2,18,0.00
2013-10-26,72,64,54,54,47,38,70,55,31,30.18,30.06,12,3,20,0.00
2013-10-27,73,66,57,56,53,47,78,63,41,30.20,30.08,9,3,17,0.00
2013-10-28,77,68,60,59,56,52,80,65,46,30.15,29.86,9,2,14,0.02
2013-10-29,84,66,60,60,56,52,87,72,40,29.98,29.64,100,14,100,2.58
2013-10-30,70,63,58,55,53,51,85,70,52,30.11,29.96,13,4,28,2.58
2013-10-31,72,64,53,56,52,46,82,67,53,30.18,30.05,10,2,16,0.00
2013-11-1,73,68,63,59,57,54,78,69,60,30.21,30.08,10,2,17,0.00
2013-11-2,91,73,58,62,56,49,83,58,24,30.11,29.83,10,2,20,0.00
2013-11-3,93,76,65,61,51,40,74,48,16,30.08,29.70,18,5,29,0.02
2013-11-4,66,63,61,49,44,40,57,50,40,30.32,30.06,20,9,31,0.00
2013-11-5,69,63,59,53,48,42,71,58,51,30.34,30.26,13,5,21,0.00
2013-11-6,72,63,52,56,50,44,79,64,51,30.27,30.05,12,2,18,0.02
2013-11-7,85,70,55,62,55,47,80,61,41,30.06,29.85,10,2,17,0.02
2013-11-8,94,80,64,61,55,49,73,46,23,29.89,29.66,12,3,22,0.00
2013-11-9,96,78,68,63,59,53,72,54,24,29.93,29.61,16,6,23,0.00
2013-11-10,71,66,62,59,56,53,86,69,57,30.04,29.93,14,7,21,0.47
2013-11-11,70,65,62,63,60,57,91,86,74,30.04,29.91,14,5,29,0.12
2013-11-12,74,66,62,63,61,58,89,83,69,29.93,29.82,9,1,13,0.22
2013-11-13,86,71,60,62,55,42,88,62,23,29.95,29.81,12,2,18,0.22
2013-11-14,84,71,61,57,53,44,75,55,25,29.95,29.82,13,3,20,0.00
2013-11-15,76,69,63,62,58,55,79,68,51,29.98,29.90,10,4,16,0.14
2013-11-16,71,66,60,62,57,54,84,73,59,29.96,29.90,12,5,20,0.02
2013-11-17,62,60,59,57,56,55,91,87,82,29.95,29.89,13,5,17,2.18
2013-11-18,68,63,59,65,59,57,93,87,75,29.89,29.71,18,7,28,0.77
2013-11-19,75,67,60,63,60,56,89,79,65,29.84,29.78,18,4,26,0.77
2013-11-20,78,70,60,65,61,56,87,75,60,29.88,29.80,9,2,16,0.00
2013-11-21,80,72,62,66,62,57,88,74,62,29.89,29.76,10,3,20,0.02
2013-11-22,73,69,67,66,63,61,88,82,74,29.86,29.67,14,3,22,0.47
2013-11-23,70,67,64,65,62,59,90,86,77,29.72,29.58,8,1,16,0.41
2013-11-24,75,67,58,60,58,54,87,72,54,29.76,29.59,10,3,14,0.41
2013-11-25,73,66,61,63,58,50,84,76,62,29.92,29.70,15,4,26,0.47
2013-11-26,72,65,59,55,52,49,77,63,50,30.04,29.89,14,5,21,0.49
2013-11-27,76,66,56,57,54,50,81,66,50,30.05,29.92,10,2,14,0.00
2013-11-28,92,74,58,65,57,49,83,58,24,29.97,29.60,8,2,15,0.00
2013-11-29,80,69,62,65,61,53,86,76,39,29.92,29.50,14,4,20,0.69
2013-11-30,70,64,59,60,56,53,87,74,58,30.20,29.91,14,4,21,0.10
2013-12-1,72,65,58,58,55,52,84,71,57,30.25,30.17,9,2,17,0.02
2013-12-2,76,68,59,57,56,53,81,65,52,30.23,30.06,8,2,14,0.04
2013-12-3,78,69,58,61,56,50,82,66,47,30.07,29.85,9,2,17,0.00
2013-12-4,92,76,60,66,58,52,82,57,27,29.85,29.44,9,2,15,0.00
2013-12-5,82,73,61,69,55,37,81,54,29,29.75,29.37,14,4,32,0.04
2013-12-6,73,65,56,50,44,38,62,47,32,30.06,29.74,12,4,19,0.00
2013-12-7,77,67,55,55,52,47,75,60,44,30.12,30.04,9,2,14,0.00
2013-12-8,85,72,59,61,56,50,81,59,43,30.09,29.85,10,2,16,0.02
2013-12-9,97,80,65,64,58,48,74,50,19,29.87,29.58,12,2,17,0.02
2013-12-10,94,84,77,64,60,54,64,45,27,29.74,29.55,13,4,21,0.00
2013-12-11,82,76,72,66,64,61,78,65,52,29.80,29.63,10,3,16,0.00
2013-12-12,80,74,68,65,62,60,81,68,54,29.85,29.77,10,3,20,0.00
2013-12-13,84,75,65,68,63,57,81,68,49,29.88,29.77,13,2,17,0.00
2013-12-14,79,73,69,66,63,60,84,72,60,30.05,29.79,16,6,24,0.02
2013-12-15,78,71,65,63,61,58,81,70,56,30.09,29.98,10,3,17,0.02
2013-12-16,78,72,66,64,61,59,82,68,58,30.15,30.04,12,4,18,0.02
2013-12-17,80,72,63,63,60,56,81,66,49,30.16,30.07,12,3,20,0.02
2013-12-18,80,73,65,62,60,58,81,64,50,30.23,30.11,10,3,16,0.02
2013-12-19,83,74,63,66,61,55,79,64,52,30.19,30.03,10,2,20,0.02
2013-12-20,103,84,67,68,61,56,78,51,23,30.03,29.83,7,2,15,0.02
2013-12-21,83,78,74,68,66,14,80,68,9,30.01,29.82,18,7,27,0.00
2013-12-22,98,83,72,73,68,64,84,63,36,29.99,29.74,10,2,18,0.00
2013-12-23,95,85,75,68,62,57,73,49,31,29.85,29.66,16,4,23,0.00
2013-12-24,75,70,67,67,63,60,86,79,71,30.11,29.87,15,4,21,0.18
2013-12-25,71,69,68,67,65,62,89,85,77,30.09,29.90,6,1,12,0.42
2013-12-26,79,72,68,66,65,62,91,77,61,29.90,29.78,13,4,19,0.55
2013-12-27,79,73,67,65,63,61,82,71,59,29.91,29.81,10,3,17,0.00
2013-12-28,82,74,67,68,64,60,82,72,62,29.90,29.67,10,2,15,0.00
2013-12-29,75,72,69,66,61,55,82,69,55,29.99,29.56,18,8,32,0.00
2013-12-30,77,71,65,58,56,55,75,62,48,29.99,29.84,10,3,17,0.02
2013-12-31,82,72,62,66,60,54,79,66,52,30.00,29.81,10,3,19,0.04
2014-1-1,86,76,68,67,65,62,84,68,52,30.00,29.78,12,2,18,0.02
2014-1-2,97,83,74,70,63,52,76,55,23,29.73,29.57,13,3,21,0.02